createdAt,value
2022-10-04T00:00:37.083Z,100.00
2022-10-04T00:03:45.120Z,100.00
2022-10-04T00:07:06.962Z,100.00
2022-10-04T00:10:20.623Z,100.00
2022-10-04T00:13:26.219Z,100.00
2022-10-04T00:16:32.585Z,100.00
2022-10-04T00:19:40.879Z,100.00
2022-10-04T00:23:20.768Z,100.00
2022-10-04T00:26:27.955Z,100.00
2022-10-04T00:29:35.781Z,100.00
2022-10-04T00:32:39.896Z,100.00
2022-10-04T00:35:44.189Z,100.00
2022-10-04T00:39:03.683Z,100.00
2022-10-04T00:42:46.448Z,100.00
2022-10-04T00:46:00.750Z,100.00
2022-10-04T00:49:08.992Z,100.00
2022-10-04T00:52:18.733Z,100.00
2022-10-04T00:55:31.405Z,100.00
2022-10-04T00:58:39.818Z,100.00
2022-10-04T01:01:44.994Z,100.00
2022-10-04T01:05:08.156Z,100.00
2022-10-04T01:08:22.711Z,100.00
2022-10-04T01:11:26.334Z,100.00
2022-10-04T01:14:51.995Z,100.00
2022-10-04T01:18:12.529Z,100.00
2022-10-04T01:21:19.846Z,100.00
2022-10-04T01:24:21.603Z,100.00
2022-10-04T01:27:31.727Z,100.00
2022-10-04T01:30:33.078Z,100.00
2022-10-04T01:33:35.580Z,100.00
2022-10-04T01:36:37.138Z,100.00
2022-10-04T01:39:38.582Z,100.00
2022-10-04T01:42:47.223Z,100.00
2022-10-04T01:45:56.528Z,100.00
2022-10-04T01:49:02.873Z,100.00
2022-10-04T01:52:09.479Z,100.00
2022-10-04T01:55:24.059Z,100.00
2022-10-04T01:58:30.091Z,100.00
2022-10-04T02:01:45.746Z,100.00
2022-10-04T02:04:52.875Z,100.00
2022-10-04T02:07:55.884Z,100.00
2022-10-04T02:10:59.155Z,100.00
2022-10-04T02:14:00.564Z,100.00
2022-10-04T02:17:05.412Z,100.00
2022-10-04T02:20:13.905Z,100.00
2022-10-04T02:23:18.873Z,100.00
2022-10-04T02:26:20.240Z,100.00
2022-10-04T02:29:21.904Z,100.00
2022-10-04T02:32:23.449Z,100.00
2022-10-04T02:35:26.573Z,100.00
2022-10-04T02:38:37.656Z,100.00
2022-10-04T02:41:48.385Z,100.00
2022-10-04T02:45:02.325Z,100.00
2022-10-04T02:48:36.037Z,100.00
2022-10-04T02:51:37.322Z,100.00
2022-10-04T02:55:03.225Z,100.00
2022-10-04T02:58:10.474Z,100.00
2022-10-04T03:01:26.229Z,100.00
2022-10-04T03:04:39.226Z,100.00
2022-10-04T03:07:40.920Z,100.00
2022-10-04T03:10:42.931Z,100.00
2022-10-04T03:13:48.750Z,100.00
2022-10-04T03:16:53.367Z,100.00
2022-10-04T03:19:54.738Z,100.00
2022-10-04T03:22:57.579Z,100.00
2022-10-04T03:26:38.268Z,100.00
2022-10-04T03:29:41.431Z,100.00
2022-10-04T03:32:43.437Z,100.00
2022-10-04T03:35:47.248Z,100.00
2022-10-04T03:38:52.143Z,100.00
2022-10-04T03:41:56.593Z,100.00
2022-10-04T03:45:01.672Z,100.00
2022-10-04T03:48:09.983Z,100.00
2022-10-04T03:51:18.795Z,100.00
2022-10-04T03:54:24.699Z,100.00
2022-10-04T03:57:26.176Z,100.00
2022-10-04T04:00:27.904Z,100.00
2022-10-04T04:03:32.452Z,100.00
2022-10-04T04:06:43.896Z,100.00
2022-10-04T04:09:52.289Z,100.00
2022-10-04T04:12:59.577Z,100.00
2022-10-04T04:16:02.422Z,100.00
2022-10-04T04:19:11.249Z,100.00
2022-10-04T04:22:17.789Z,100.00
2022-10-04T04:25:19.633Z,100.00
2022-10-04T04:28:32.020Z,100.00
2022-10-04T04:31:51.830Z,100.00
2022-10-04T04:34:57.829Z,100.00
2022-10-04T04:38:12.817Z,100.00
2022-10-04T04:41:14.237Z,100.00
2022-10-04T04:44:18.841Z,100.00
2022-10-04T04:47:33.991Z,100.00
2022-10-04T04:50:39.722Z,100.00
2022-10-04T04:53:43.076Z,100.00
2022-10-04T04:56:46.659Z,100.00
2022-10-04T04:59:53.474Z,100.00
2022-10-04T05:02:58.813Z,100.00
2022-10-04T05:06:01.148Z,100.00
2022-10-04T05:09:04.618Z,100.00
2022-10-04T05:12:17.445Z,100.00
2022-10-04T05:15:19.616Z,100.00
2022-10-04T05:18:47.814Z,100.00
2022-10-04T05:21:52.237Z,100.00
2022-10-04T05:24:57.913Z,100.00
2022-10-04T05:27:59.746Z,100.00
2022-10-04T05:31:08.683Z,100.00
2022-10-04T05:34:26.190Z,100.00
2022-10-04T05:38:09.994Z,100.00
2022-10-04T05:41:24.093Z,100.00
2022-10-04T05:44:35.006Z,100.00
2022-10-04T05:47:36.422Z,100.00
2022-10-04T05:50:40.220Z,100.00
2022-10-04T05:53:41.975Z,100.00
2022-10-04T05:57:07.513Z,100.00
2022-10-04T06:00:16.455Z,100.00
2022-10-04T06:03:40.011Z,100.00
2022-10-04T06:06:47.627Z,100.00
2022-10-04T06:09:58.267Z,100.00
2022-10-04T06:13:21.551Z,100.00
2022-10-04T06:16:32.154Z,100.00
2022-10-04T06:19:59.040Z,100.00
2022-10-04T06:23:02.279Z,100.00
2022-10-04T06:26:10.844Z,100.00
2022-10-04T06:29:20.848Z,100.00
2022-10-04T06:32:56.280Z,100.00
2022-10-04T06:36:33.116Z,99.43
2022-10-04T06:39:52.576Z,94.97
2022-10-04T06:43:05.817Z,93.96
2022-10-04T06:46:07.149Z,93.11
2022-10-04T06:49:20.789Z,91.10
2022-10-04T06:52:40.864Z,83.61
2022-10-04T06:55:57.379Z,84.88
2022-10-04T06:59:04.443Z,88.72
2022-10-04T07:02:14.578Z,97.04
2022-10-04T07:05:29.854Z,100.00
2022-10-04T07:08:41.676Z,90.59
2022-10-04T07:11:50.665Z,80.74
2022-10-04T07:14:56.418Z,78.94
2022-10-04T07:18:05.736Z,89.05
2022-10-04T07:21:11.054Z,96.93
2022-10-04T07:24:23.426Z,95.99
2022-10-04T07:28:03.124Z,79.62
2022-10-04T07:31:13.031Z,82.13
2022-10-04T07:34:25.558Z,87.80
2022-10-04T07:37:30.783Z,92.67
2022-10-04T07:40:37.842Z,96.28
2022-10-04T07:43:51.223Z,97.01
2022-10-04T07:46:57.847Z,97.29
2022-10-04T07:49:59.273Z,95.34
2022-10-04T07:53:27.502Z,92.14
2022-10-04T07:56:45.710Z,92.88
2022-10-04T08:00:02.785Z,94.35
2022-10-04T08:03:30.758Z,95.65
2022-10-04T08:06:56.786Z,96.11
2022-10-04T08:10:10.751Z,96.47
2022-10-04T08:13:21.391Z,96.01
2022-10-04T08:16:35.322Z,95.55
2022-10-04T08:19:51.943Z,95.29
2022-10-04T08:23:19.708Z,94.35
2022-10-04T08:26:45.616Z,93.85
2022-10-04T08:30:15.797Z,91.79
2022-10-04T08:33:35.925Z,90.72
2022-10-04T08:36:52.377Z,89.48
2022-10-04T08:40:16.242Z,88.93
2022-10-04T08:43:39.493Z,89.93
2022-10-04T08:46:51.713Z,91.25
2022-10-04T08:50:30.125Z,91.23
2022-10-04T08:54:04.065Z,91.29
2022-10-04T08:57:15.817Z,88.79
2022-10-04T09:00:25.958Z,91.43
2022-10-04T09:03:32.983Z,90.92
2022-10-04T09:06:44.973Z,90.15
2022-10-04T09:10:01.687Z,89.76
2022-10-04T09:13:21.798Z,89.63
2022-10-04T09:16:42.165Z,89.13
2022-10-04T09:20:36.664Z,89.07
2022-10-04T09:23:30.990Z,88.27
2022-10-04T09:26:59.003Z,87.27
2022-10-04T09:30:16.223Z,87.56
2022-10-04T09:33:59.576Z,86.64
2022-10-04T09:37:32.554Z,87.71
2022-10-04T09:40:52.652Z,87.98
2022-10-04T09:44:10.429Z,87.41
2022-10-04T09:47:31.915Z,86.72
2022-10-04T09:50:35.991Z,86.35
2022-10-04T09:53:45.392Z,86.03
2022-10-04T09:57:08.399Z,83.85
2022-10-04T10:00:20.344Z,84.50
2022-10-04T10:03:43.020Z,83.61
2022-10-04T10:07:06.092Z,84.24
2022-10-04T10:10:15.631Z,84.39
2022-10-04T10:13:30.037Z,83.52
2022-10-04T10:16:52.105Z,82.92
2022-10-04T10:20:17.729Z,79.03
2022-10-04T10:23:47.261Z,77.36
2022-10-04T10:26:54.461Z,75.84
2022-10-04T10:30:15.633Z,75.89
2022-10-04T10:33:40.770Z,75.38
2022-10-04T10:36:55.936Z,74.41
2022-10-04T10:40:34.225Z,73.79
2022-10-04T10:43:58.536Z,69.50
2022-10-04T10:47:05.890Z,73.25
2022-10-04T10:50:20.230Z,73.00
2022-10-04T10:54:00.838Z,71.83
2022-10-04T10:57:08.109Z,72.33
2022-10-04T11:00:52.606Z,71.05
2022-10-04T11:04:15.362Z,70.96
2022-10-04T11:07:25.853Z,71.17
2022-10-04T11:10:47.916Z,69.88
2022-10-04T11:14:19.258Z,67.37
2022-10-04T11:17:57.815Z,65.38
2022-10-04T11:21:11.339Z,66.50
2022-10-04T11:24:40.007Z,64.56
2022-10-04T11:28:03.098Z,65.60
2022-10-04T11:31:28.841Z,63.37
2022-10-04T11:34:48.695Z,65.03
2022-10-04T11:38:09.847Z,62.84
2022-10-04T11:41:27.926Z,62.89
2022-10-04T11:44:41.354Z,64.02
2022-10-04T11:48:10.660Z,61.22
2022-10-04T11:51:42.959Z,62.76
2022-10-04T11:55:07.779Z,63.12
2022-10-04T11:58:31.496Z,62.27
2022-10-04T12:01:44.618Z,63.40
2022-10-04T12:04:52.595Z,62.74
2022-10-04T12:08:30.294Z,61.41
2022-10-04T12:11:56.325Z,61.72
2022-10-04T12:15:28.651Z,59.66
2022-10-04T12:18:48.741Z,60.16
2022-10-04T12:22:14.900Z,60.84
2022-10-04T12:25:52.053Z,61.00
2022-10-04T12:28:59.320Z,62.04
2022-10-04T12:32:10.331Z,61.25
2022-10-04T12:35:14.667Z,61.75
2022-10-04T12:38:18.767Z,62.49
2022-10-04T12:41:30.601Z,62.41
2022-10-04T12:44:41.857Z,62.05
2022-10-04T12:47:52.426Z,62.08
2022-10-04T12:51:21.886Z,60.61
2022-10-04T12:54:37.835Z,59.55
2022-10-04T12:57:53.446Z,59.44
2022-10-04T13:01:05.456Z,60.22
2022-10-04T13:04:34.195Z,58.53
2022-10-04T13:08:01.323Z,58.96
2022-10-04T13:11:21.959Z,59.51
2022-10-04T13:14:55.183Z,59.08
2022-10-04T13:18:27.708Z,59.53
2022-10-04T13:21:41.148Z,59.83
2022-10-04T13:25:19.649Z,59.03
2022-10-04T13:28:34.121Z,60.26
2022-10-04T13:31:42.117Z,61.23
2022-10-04T13:34:49.772Z,61.33
2022-10-04T13:38:06.359Z,60.62
2022-10-04T13:41:22.917Z,62.13
2022-10-04T13:44:52.564Z,61.83
2022-10-04T13:48:41.912Z,61.50
2022-10-04T13:51:49.217Z,62.69
2022-10-04T13:55:05.621Z,62.12
2022-10-04T13:58:10.006Z,62.55
2022-10-04T14:01:36.371Z,62.72
2022-10-04T14:05:08.228Z,62.09
2022-10-04T14:08:34.942Z,62.91
2022-10-04T14:12:07.082Z,62.70
2022-10-04T14:15:22.096Z,63.64
2022-10-04T14:19:08.095Z,62.85
2022-10-04T14:22:09.382Z,63.56
2022-10-04T14:25:39.733Z,62.68
2022-10-04T14:28:47.062Z,63.24
2022-10-04T14:32:16.458Z,63.61
2022-10-04T14:35:34.662Z,63.27
2022-10-04T14:38:46.304Z,64.35
2022-10-04T14:42:13.411Z,64.22
2022-10-04T14:45:20.955Z,64.76
2022-10-04T14:48:47.230Z,64.75
2022-10-04T14:52:25.787Z,64.78
2022-10-04T14:55:37.525Z,65.24
2022-10-04T14:59:14.296Z,64.60
2022-10-04T15:02:27.491Z,64.24
2022-10-04T15:05:36.855Z,64.75
2022-10-04T15:09:07.460Z,64.38
2022-10-04T15:12:40.682Z,64.44
2022-10-04T15:16:03.442Z,64.31
2022-10-04T15:19:27.087Z,64.81
2022-10-04T15:22:40.480Z,65.09
2022-10-04T15:25:48.001Z,64.98
2022-10-04T15:28:49.280Z,65.76
2022-10-04T15:32:24.157Z,65.25
2022-10-04T15:35:38.801Z,65.89
2022-10-04T15:38:53.579Z,66.54
2022-10-04T15:42:07.741Z,66.58
2022-10-04T15:45:14.922Z,66.35
2022-10-04T15:48:38.487Z,66.80
2022-10-04T15:51:39.725Z,67.44
2022-10-04T15:55:04.510Z,67.48
2022-10-04T15:58:37.459Z,67.55
2022-10-04T16:01:57.401Z,68.46
2022-10-04T16:05:13.042Z,68.80
2022-10-04T16:08:42.274Z,69.51
2022-10-04T16:11:56.601Z,69.70
2022-10-04T16:15:10.931Z,70.22
2022-10-04T16:18:44.990Z,70.94
2022-10-04T16:22:09.811Z,71.32
2022-10-04T16:25:37.439Z,71.78
2022-10-04T16:29:09.848Z,72.38
2022-10-04T16:32:17.029Z,72.91
2022-10-04T16:35:24.382Z,73.40
2022-10-04T16:38:28.068Z,73.81
2022-10-04T16:41:37.551Z,73.63
2022-10-04T16:44:53.408Z,73.69
2022-10-04T16:48:00.263Z,74.01
2022-10-04T16:51:04.659Z,74.65
2022-10-04T16:54:37.224Z,74.92
2022-10-04T16:57:38.664Z,75.64
2022-10-04T17:00:40.093Z,75.98
2022-10-04T17:04:05.967Z,76.14
2022-10-04T17:07:10.380Z,76.83
2022-10-04T17:10:49.047Z,77.14
2022-10-04T17:14:01.299Z,77.97
2022-10-04T17:17:22.020Z,78.22
2022-10-04T17:20:44.451Z,78.83
2022-10-04T17:24:15.229Z,78.90
2022-10-04T17:27:43.788Z,79.32
2022-10-04T17:31:00.868Z,79.74
2022-10-04T17:34:20.772Z,79.94
2022-10-04T17:37:57.341Z,80.58
2022-10-04T17:41:08.667Z,81.02
2022-10-04T17:44:16.103Z,81.24
2022-10-04T17:47:39.029Z,81.35
2022-10-04T17:50:57.907Z,82.02
2022-10-04T17:54:11.970Z,82.55
2022-10-04T17:57:39.631Z,83.17
2022-10-04T18:01:09.702Z,83.22
2022-10-04T18:04:28.782Z,83.27
2022-10-04T18:07:47.273Z,83.41
2022-10-04T18:10:59.175Z,84.35
2022-10-04T18:14:00.462Z,85.24
2022-10-04T18:17:05.181Z,84.51
2022-10-04T18:20:27.876Z,83.90
2022-10-04T18:23:33.147Z,84.69
2022-10-04T18:26:34.547Z,84.90
2022-10-04T18:29:42.040Z,85.07
2022-10-04T18:32:45.862Z,85.39
2022-10-04T18:36:12.474Z,85.13
2022-10-04T18:39:13.735Z,86.13
2022-10-04T18:42:27.308Z,85.89
2022-10-04T18:45:32.363Z,87.72
2022-10-04T18:48:44.160Z,86.40
2022-10-04T18:52:00.258Z,86.70
2022-10-04T18:55:49.129Z,85.90
2022-10-04T18:59:41.056Z,85.70
2022-10-04T19:02:51.716Z,85.57
2022-10-04T19:06:16.515Z,85.09
2022-10-04T19:09:32.520Z,85.33
2022-10-04T19:12:52.165Z,85.43
2022-10-04T19:16:12.188Z,86.44
2022-10-04T19:19:29.762Z,86.27
2022-10-04T19:22:49.070Z,86.37
2022-10-04T19:26:26.881Z,87.27
2022-10-04T19:29:44.169Z,87.30
2022-10-04T19:33:10.917Z,87.45
2022-10-04T19:36:50.868Z,87.50
2022-10-04T19:40:21.646Z,87.43
2022-10-04T19:43:58.897Z,87.02
2022-10-04T19:47:26.173Z,86.97
2022-10-04T19:50:32.190Z,87.43
2022-10-04T19:53:40.270Z,87.36
2022-10-04T19:56:48.330Z,87.46
2022-10-04T19:59:49.999Z,87.60
2022-10-04T20:02:51.355Z,87.75
2022-10-04T20:05:54.690Z,87.95
2022-10-04T20:09:01.900Z,89.08
2022-10-04T20:12:05.382Z,88.51
2022-10-04T20:15:43.195Z,87.81
2022-10-04T20:18:44.487Z,87.96
2022-10-04T20:21:46.031Z,87.83
2022-10-04T20:24:47.312Z,87.67
2022-10-04T20:27:59.498Z,87.42
2022-10-04T20:31:03.356Z,87.48
2022-10-04T20:34:31.112Z,87.13
2022-10-04T20:37:44.844Z,87.23
2022-10-04T20:40:46.232Z,87.41
2022-10-04T20:43:54.180Z,86.95
2022-10-04T20:46:55.589Z,86.98
2022-10-04T20:49:58.740Z,87.02
2022-10-04T20:53:04.588Z,86.93
2022-10-04T20:56:19.740Z,86.38
2022-10-04T20:59:21.796Z,86.62
2022-10-04T21:02:25.060Z,86.30
2022-10-04T21:05:26.345Z,86.47
2022-10-04T21:08:28.594Z,86.47
2022-10-04T21:11:45.153Z,85.73
2022-10-04T21:15:02.096Z,85.94
2022-10-04T21:18:08.840Z,86.43
2022-10-04T21:21:10.177Z,86.71
2022-10-04T21:24:45.866Z,86.52
2022-10-04T21:27:47.265Z,87.59
2022-10-04T21:30:48.597Z,87.68
2022-10-04T21:33:50.094Z,87.99
2022-10-04T21:36:51.842Z,87.74
2022-10-04T21:39:53.190Z,88.17
2022-10-04T21:42:54.518Z,88.21
2022-10-04T21:45:56.003Z,88.09
2022-10-04T21:48:57.370Z,88.05
2022-10-04T21:51:58.699Z,87.76
2022-10-04T21:55:00.113Z,87.72
2022-10-04T21:58:01.475Z,87.62
2022-10-04T22:01:02.928Z,87.41
2022-10-04T22:04:04.286Z,87.59
2022-10-04T22:07:05.595Z,87.73
2022-10-04T22:10:07.297Z,87.75
2022-10-04T22:13:09.139Z,87.54
2022-10-04T22:16:11.022Z,87.38
2022-10-04T22:19:12.383Z,87.25
2022-10-04T22:22:15.359Z,87.06
2022-10-04T22:25:19.313Z,86.98
2022-10-04T22:28:23.334Z,86.60
2022-10-04T22:31:27.399Z,86.14
2022-10-04T22:34:30.949Z,86.10
2022-10-04T22:37:33.376Z,86.02
2022-10-04T22:40:34.776Z,86.21
2022-10-04T22:43:36.268Z,86.03
2022-10-04T22:46:40.677Z,86.00
2022-10-04T22:49:45.008Z,85.82
2022-10-04T22:52:46.555Z,85.71
2022-10-04T22:55:49.145Z,85.40
2022-10-04T22:58:50.484Z,85.38
2022-10-04T23:01:51.840Z,85.31
2022-10-04T23:04:56.386Z,85.14
2022-10-04T23:07:57.754Z,84.97
2022-10-04T23:10:59.813Z,84.72
2022-10-04T23:14:01.145Z,84.52
2022-10-04T23:17:16.749Z,84.42
2022-10-04T23:20:19.714Z,84.75
2022-10-04T23:23:21.100Z,84.96
2022-10-04T23:26:24.817Z,84.99
2022-10-04T23:29:30.019Z,85.25
2022-10-04T23:32:32.463Z,85.46
2022-10-04T23:35:34.011Z,85.71
2022-10-04T23:38:35.400Z,85.82
2022-10-04T23:41:36.766Z,86.01
2022-10-04T23:44:38.403Z,85.83
2022-10-04T23:47:39.743Z,85.52
2022-10-04T23:50:41.344Z,85.31
2022-10-04T23:53:44.446Z,85.45
2022-10-04T23:56:47.822Z,85.23
2022-10-04T23:59:50.008Z,85.00
